sensor_id;sensor_type;location;lat;lon;timestamp;P1;durP1;ratioP1;P2;durP2;ratioP2
12290;SDS011;6208;48.956;9.076;2024-03-29T00:01:41;1.40;;;1.30;;
12290;SDS011;6208;48.956;9.076;2024-03-29T00:04:27;0.93;;;0.90;;
12290;SDS011;6208;48.956;9.076;2024-03-29T00:07:11;1.73;;;1.23;;
12290;SDS011;6208;48.956;9.076;2024-03-29T00:09:55;2.08;;;1.33;;
12290;SDS011;6208;48.956;9.076;2024-03-29T00:12:39;1.35;;;0.90;;
12290;SDS011;6208;48.956;9.076;2024-03-29T00:15:23;1.23;;;1.17;;
12290;SDS011;6208;48.956;9.076;2024-03-29T00:18:08;1.33;;;1.23;;
12290;SDS011;6208;48.956;9.076;2024-03-29T00:20:52;1.38;;;0.98;;
12290;SDS011;6208;48.956;9.076;2024-03-29T00:23:36;2.83;;;1.02;;
12290;SDS011;6208;48.956;9.076;2024-03-29T00:26:21;1.50;;;1.40;;
12290;SDS011;6208;48.956;9.076;2024-03-29T00:29:05;1.60;;;1.40;;
12290;SDS011;6208;48.956;9.076;2024-03-29T00:31:49;1.75;;;1.30;;
12290;SDS011;6208;48.956;9.076;2024-03-29T00:34:33;1.92;;;1.20;;
12290;SDS011;6208;48.956;9.076;2024-03-29T00:37:19;1.90;;;0.98;;
12290;SDS011;6208;48.956;9.076;2024-03-29T00:40:04;2.92;;;1.45;;
12290;SDS011;6208;48.956;9.076;2024-03-29T00:42:48;2.28;;;1.25;;
12290;SDS011;6208;48.956;9.076;2024-03-29T00:45:32;1.20;;;1.10;;
12290;SDS011;6208;48.956;9.076;2024-03-29T00:48:17;2.25;;;1.30;;
12290;SDS011;6208;48.956;9.076;2024-03-29T00:51:03;1.48;;;1.38;;
12290;SDS011;6208;48.956;9.076;2024-03-29T00:53:48;3.22;;;1.70;;
12290;SDS011;6208;48.956;9.076;2024-03-29T00:56:32;1.60;;;1.50;;
12290;SDS011;6208;48.956;9.076;2024-03-29T00:59:16;1.40;;;1.33;;
12290;SDS011;6208;48.956;9.076;2024-03-29T01:02:00;1.52;;;1.10;;
12290;SDS011;6208;48.956;9.076;2024-03-29T01:04:44;1.75;;;1.63;;
12290;SDS011;6208;48.956;9.076;2024-03-29T01:07:28;2.25;;;1.40;;
12290;SDS011;6208;48.956;9.076;2024-03-29T01:10:12;1.67;;;1.23;;
12290;SDS011;6208;48.956;9.076;2024-03-29T01:12:56;1.35;;;1.30;;
12290;SDS011;6208;48.956;9.076;2024-03-29T01:15:41;2.20;;;1.60;;
12290;SDS011;6208;48.956;9.076;2024-03-29T01:18:25;2.05;;;1.20;;
12290;SDS011;6208;48.956;9.076;2024-03-29T01:21:09;1.90;;;1.40;;
12290;SDS011;6208;48.956;9.076;2024-03-29T01:23:53;2.95;;;1.42;;
12290;SDS011;6208;48.956;9.076;2024-03-29T01:26:37;1.55;;;1.33;;
12290;SDS011;6208;48.956;9.076;2024-03-29T01:29:21;1.65;;;1.30;;
12290;SDS011;6208;48.956;9.076;2024-03-29T01:32:05;1.40;;;1.30;;
12290;SDS011;6208;48.956;9.076;2024-03-29T01:34:49;4.22;;;1.58;;
12290;SDS011;6208;48.956;9.076;2024-03-29T01:37:33;3.45;;;1.50;;
12290;SDS011;6208;48.956;9.076;2024-03-29T01:40:18;3.05;;;1.40;;
12290;SDS011;6208;48.956;9.076;2024-03-29T01:43:09;1.90;;;1.73;;
12290;SDS011;6208;48.956;9.076;2024-03-29T01:45:53;1.65;;;1.20;;
12290;SDS011;6208;48.956;9.076;2024-03-29T01:48:38;1.60;;;1.50;;
12290;SDS011;6208;48.956;9.076;2024-03-29T01:51:22;1.65;;;1.23;;
12290;SDS011;6208;48.956;9.076;2024-03-29T01:54:08;1.85;;;1.60;;
12290;SDS011;6208;48.956;9.076;2024-03-29T01:56:56;2.03;;;1.35;;
12290;SDS011;6208;48.956;9.076;2024-03-29T01:59:41;1.50;;;1.38;;
12290;SDS011;6208;48.956;9.076;2024-03-29T02:02:29;1.40;;;1.40;;
12290;SDS011;6208;48.956;9.076;2024-03-29T02:05:13;1.45;;;1.30;;
12290;SDS011;6208;48.956;9.076;2024-03-29T02:07:58;1.33;;;1.23;;
12290;SDS011;6208;48.956;9.076;2024-03-29T02:10:43;1.83;;;1.52;;
12290;SDS011;6208;48.956;9.076;2024-03-29T02:13:30;2.10;;;1.67;;
12290;SDS011;6208;48.956;9.076;2024-03-29T02:16:15;2.15;;;1.83;;
12290;SDS011;6208;48.956;9.076;2024-03-29T02:18:59;4.60;;;1.50;;
12290;SDS011;6208;48.956;9.076;2024-03-29T02:21:45;1.10;;;1.10;;
12290;SDS011;6208;48.956;9.076;2024-03-29T02:24:33;1.20;;;1.20;;
12290;SDS011;6208;48.956;9.076;2024-03-29T02:27:18;1.52;;;1.05;;
12290;SDS011;6208;48.956;9.076;2024-03-29T02:30:03;1.38;;;1.27;;
12290;SDS011;6208;48.956;9.076;2024-03-29T02:32:47;1.55;;;1.13;;
12290;SDS011;6208;48.956;9.076;2024-03-29T02:35:31;1.23;;;1.23;;
12290;SDS011;6208;48.956;9.076;2024-03-29T02:38:16;2.67;;;1.35;;
12290;SDS011;6208;48.956;9.076;2024-03-29T02:41:00;1.25;;;1.00;;
12290;SDS011;6208;48.956;9.076;2024-03-29T02:43:44;1.30;;;1.20;;
12290;SDS011;6208;48.956;9.076;2024-03-29T02:46:28;3.40;;;1.58;;
12290;SDS011;6208;48.956;9.076;2024-03-29T02:49:12;1.65;;;1.20;;
12290;SDS011;6208;48.956;9.076;2024-03-29T02:51:56;2.90;;;1.40;;
12290;SDS011;6208;48.956;9.076;2024-03-29T02:54:41;1.35;;;1.30;;
12290;SDS011;6208;48.956;9.076;2024-03-29T02:57:25;1.02;;;1.02;;
12290;SDS011;6208;48.956;9.076;2024-03-29T03:00:09;1.23;;;1.17;;
12290;SDS011;6208;48.956;9.076;2024-03-29T03:02:54;2.08;;;1.33;;
12290;SDS011;6208;48.956;9.076;2024-03-29T03:05:39;1.27;;;1.17;;
12290;SDS011;6208;48.956;9.076;2024-03-29T03:08:24;1.52;;;1.10;;
12290;SDS011;6208;48.956;9.076;2024-03-29T03:11:27;1.30;;;1.27;;
12290;SDS011;6208;48.956;9.076;2024-03-29T03:14:11;1.92;;;1.30;;
12290;SDS011;6208;48.956;9.076;2024-03-29T03:16:55;0.95;;;0.95;;
12290;SDS011;6208;48.956;9.076;2024-03-29T03:19:40;1.60;;;1.10;;
12290;SDS011;6208;48.956;9.076;2024-03-29T03:22:24;2.00;;;1.10;;
12290;SDS011;6208;48.956;9.076;2024-03-29T03:25:09;1.48;;;1.00;;
12290;SDS011;6208;48.956;9.076;2024-03-29T03:27:53;1.23;;;1.13;;
12290;SDS011;6208;48.956;9.076;2024-03-29T03:30:41;1.60;;;1.13;;
12290;SDS011;6208;48.956;9.076;2024-03-29T03:33:26;1.98;;;1.60;;
12290;SDS011;6208;48.956;9.076;2024-03-29T03:36:10;2.55;;;1.85;;
12290;SDS011;6208;48.956;9.076;2024-03-29T03:38:55;1.67;;;1.30;;
12290;SDS011;6208;48.956;9.076;2024-03-29T03:41:39;1.80;;;1.70;;
12290;SDS011;6208;48.956;9.076;2024-03-29T03:44:23;3.33;;;2.47;;
12290;SDS011;6208;48.956;9.076;2024-03-29T03:47:08;2.05;;;1.88;;
12290;SDS011;6208;48.956;9.076;2024-03-29T03:49:52;1.20;;;1.10;;
12290;SDS011;6208;48.956;9.076;2024-03-29T03:52:36;1.40;;;1.10;;
12290;SDS011;6208;48.956;9.076;2024-03-29T03:55:20;2.25;;;1.30;;
12290;SDS011;6208;48.956;9.076;2024-03-29T03:58:04;2.78;;;1.50;;
12290;SDS011;6208;48.956;9.076;2024-03-29T04:00:48;1.73;;;1.15;;
12290;SDS011;6208;48.956;9.076;2024-03-29T04:03:33;1.60;;;1.00;;
12290;SDS011;6208;48.956;9.076;2024-03-29T04:06:17;1.63;;;1.13;;
12290;SDS011;6208;48.956;9.076;2024-03-29T04:09:01;1.00;;;1.00;;
12290;SDS011;6208;48.956;9.076;2024-03-29T04:11:46;0.85;;;0.85;;
12290;SDS011;6208;48.956;9.076;2024-03-29T04:14:30;0.80;;;0.80;;
12290;SDS011;6208;48.956;9.076;2024-03-29T04:17:15;1.30;;;1.10;;
12290;SDS011;6208;48.956;9.076;2024-03-29T04:19:59;1.05;;;1.05;;
12290;SDS011;6208;48.956;9.076;2024-03-29T04:22:43;1.33;;;1.10;;
12290;SDS011;6208;48.956;9.076;2024-03-29T04:25:28;2.65;;;1.20;;
12290;SDS011;6208;48.956;9.076;2024-03-29T04:28:12;1.10;;;1.00;;
12290;SDS011;6208;48.956;9.076;2024-03-29T04:30:57;1.35;;;1.02;;
12290;SDS011;6208;48.956;9.076;2024-03-29T04:33:43;0.90;;;0.90;;
12290;SDS011;6208;48.956;9.076;2024-03-29T04:36:27;1.00;;;0.90;;
12290;SDS011;6208;48.956;9.076;2024-03-29T04:39:11;1.02;;;1.02;;
12290;SDS011;6208;48.956;9.076;2024-03-29T04:41:55;1.17;;;1.08;;
12290;SDS011;6208;48.956;9.076;2024-03-29T04:44:39;1.00;;;1.00;;
12290;SDS011;6208;48.956;9.076;2024-03-29T04:47:23;3.25;;;1.00;;
12290;SDS011;6208;48.956;9.076;2024-03-29T04:50:07;1.40;;;1.20;;
12290;SDS011;6208;48.956;9.076;2024-03-29T04:52:51;0.70;;;0.70;;
12290;SDS011;6208;48.956;9.076;2024-03-29T04:55:35;1.45;;;0.77;;
12290;SDS011;6208;48.956;9.076;2024-03-29T04:58:20;1.27;;;0.90;;
12290;SDS011;6208;48.956;9.076;2024-03-29T05:01:05;0.85;;;0.85;;
12290;SDS011;6208;48.956;9.076;2024-03-29T05:03:50;1.90;;;0.90;;
12290;SDS011;6208;48.956;9.076;2024-03-29T05:06:34;1.52;;;0.90;;
12290;SDS011;6208;48.956;9.076;2024-03-29T05:09:18;1.92;;;1.00;;
12290;SDS011;6208;48.956;9.076;2024-03-29T05:12:03;2.80;;;1.00;;
12290;SDS011;6208;48.956;9.076;2024-03-29T05:14:48;1.08;;;0.98;;
12290;SDS011;6208;48.956;9.076;2024-03-29T05:17:33;1.20;;;0.80;;
12290;SDS011;6208;48.956;9.076;2024-03-29T05:20:17;1.00;;;1.00;;
12290;SDS011;6208;48.956;9.076;2024-03-29T05:23:01;1.33;;;1.02;;
12290;SDS011;6208;48.956;9.076;2024-03-29T05:25:45;0.85;;;0.85;;
12290;SDS011;6208;48.956;9.076;2024-03-29T05:28:32;0.70;;;0.70;;
12290;SDS011;6208;48.956;9.076;2024-03-29T05:31:16;0.70;;;0.70;;
12290;SDS011;6208;48.956;9.076;2024-03-29T05:34:02;0.90;;;0.90;;
12290;SDS011;6208;48.956;9.076;2024-03-29T05:36:46;2.40;;;1.17;;
12290;SDS011;6208;48.956;9.076;2024-03-29T05:39:30;0.63;;;0.63;;
12290;SDS011;6208;48.956;9.076;2024-03-29T05:42:14;0.75;;;0.75;;
12290;SDS011;6208;48.956;9.076;2024-03-29T05:44:58;0.82;;;0.82;;
12290;SDS011;6208;48.956;9.076;2024-03-29T05:47:42;1.60;;;1.05;;
12290;SDS011;6208;48.956;9.076;2024-03-29T05:50:28;0.70;;;0.70;;
12290;SDS011;6208;48.956;9.076;2024-03-29T05:53:12;1.23;;;1.10;;
12290;SDS011;6208;48.956;9.076;2024-03-29T05:55:57;1.70;;;1.15;;
12290;SDS011;6208;48.956;9.076;2024-03-29T05:58:41;1.15;;;1.05;;
12290;SDS011;6208;48.956;9.076;2024-03-29T06:01:25;2.05;;;1.25;;
12290;SDS011;6208;48.956;9.076;2024-03-29T06:04:09;1.15;;;0.90;;
12290;SDS011;6208;48.956;9.076;2024-03-29T06:07:00;0.95;;;0.95;;
12290;SDS011;6208;48.956;9.076;2024-03-29T06:09:44;1.00;;;1.00;;
12290;SDS011;6208;48.956;9.076;2024-03-29T06:12:29;2.20;;;1.20;;
12290;SDS011;6208;48.956;9.076;2024-03-29T06:15:15;0.90;;;0.90;;
12290;SDS011;6208;48.956;9.076;2024-03-29T06:18:18;1.25;;;1.17;;
12290;SDS011;6208;48.956;9.076;2024-03-29T06:21:02;1.73;;;1.20;;
12290;SDS011;6208;48.956;9.076;2024-03-29T06:23:46;1.92;;;1.10;;
12290;SDS011;6208;48.956;9.076;2024-03-29T06:26:30;2.40;;;1.05;;
12290;SDS011;6208;48.956;9.076;2024-03-29T06:29:14;1.10;;;1.10;;
12290;SDS011;6208;48.956;9.076;2024-03-29T06:31:59;1.55;;;1.40;;
12290;SDS011;6208;48.956;9.076;2024-03-29T06:34:43;2.45;;;1.30;;
12290;SDS011;6208;48.956;9.076;2024-03-29T06:37:30;3.33;;;2.90;;
12290;SDS011;6208;48.956;9.076;2024-03-29T06:40:14;0.98;;;0.98;;
12290;SDS011;6208;48.956;9.076;2024-03-29T06:42:59;0.95;;;0.82;;
12290;SDS011;6208;48.956;9.076;2024-03-29T06:45:44;0.90;;;0.90;;
12290;SDS011;6208;48.956;9.076;2024-03-29T06:48:29;2.75;;;2.53;;
12290;SDS011;6208;48.956;9.076;2024-03-29T06:51:17;0.75;;;0.75;;
12290;SDS011;6208;48.956;9.076;2024-03-29T06:54:02;1.23;;;1.00;;
12290;SDS011;6208;48.956;9.076;2024-03-29T06:56:47;1.35;;;1.00;;
12290;SDS011;6208;48.956;9.076;2024-03-29T06:59:33;0.90;;;0.90;;
12290;SDS011;6208;48.956;9.076;2024-03-29T07:02:17;0.95;;;0.90;;
12290;SDS011;6208;48.956;9.076;2024-03-29T07:05:02;1.67;;;1.13;;
12290;SDS011;6208;48.956;9.076;2024-03-29T07:07:51;1.15;;;0.95;;
12290;SDS011;6208;48.956;9.076;2024-03-29T07:10:35;0.77;;;0.70;;
12290;SDS011;6208;48.956;9.076;2024-03-29T07:13:19;1.55;;;1.00;;
12290;SDS011;6208;48.956;9.076;2024-03-29T07:16:03;0.75;;;0.75;;
12290;SDS011;6208;48.956;9.076;2024-03-29T07:18:47;0.73;;;0.73;;
12290;SDS011;6208;48.956;9.076;2024-03-29T07:21:32;0.93;;;0.93;;
12290;SDS011;6208;48.956;9.076;2024-03-29T07:24:16;1.75;;;1.10;;
12290;SDS011;6208;48.956;9.076;2024-03-29T07:27:00;1.20;;;1.13;;
12290;SDS011;6208;48.956;9.076;2024-03-29T07:29:44;1.20;;;1.10;;
12290;SDS011;6208;48.956;9.076;2024-03-29T07:32:29;0.90;;;0.90;;
12290;SDS011;6208;48.956;9.076;2024-03-29T07:35:14;1.25;;;0.95;;
12290;SDS011;6208;48.956;9.076;2024-03-29T07:37:59;0.90;;;0.90;;
12290;SDS011;6208;48.956;9.076;2024-03-29T07:40:43;0.80;;;0.80;;
12290;SDS011;6208;48.956;9.076;2024-03-29T07:43:34;0.60;;;0.60;;
12290;SDS011;6208;48.956;9.076;2024-03-29T07:46:22;0.80;;;0.80;;
12290;SDS011;6208;48.956;9.076;2024-03-29T07:49:07;1.45;;;0.77;;
12290;SDS011;6208;48.956;9.076;2024-03-29T07:51:51;1.75;;;1.02;;
12290;SDS011;6208;48.956;9.076;2024-03-29T07:54:35;2.42;;;1.08;;
12290;SDS011;6208;48.956;9.076;2024-03-29T07:57:19;1.00;;;1.00;;
12290;SDS011;6208;48.956;9.076;2024-03-29T08:00:04;1.08;;;1.08;;
12290;SDS011;6208;48.956;9.076;2024-03-29T08:02:49;1.52;;;1.05;;
12290;SDS011;6208;48.956;9.076;2024-03-29T08:05:34;2.78;;;1.30;;
12290;SDS011;6208;48.956;9.076;2024-03-29T08:08:20;1.25;;;1.15;;
12290;SDS011;6208;48.956;9.076;2024-03-29T08:11:06;1.45;;;1.25;;
12290;SDS011;6208;48.956;9.076;2024-03-29T08:13:51;1.27;;;1.17;;
12290;SDS011;6208;48.956;9.076;2024-03-29T08:16:35;1.42;;;1.33;;
12290;SDS011;6208;48.956;9.076;2024-03-29T08:19:19;2.33;;;1.30;;
12290;SDS011;6208;48.956;9.076;2024-03-29T08:22:05;1.42;;;1.33;;
12290;SDS011;6208;48.956;9.076;2024-03-29T08:24:50;3.67;;;2.58;;
12290;SDS011;6208;48.956;9.076;2024-03-29T08:27:34;2.30;;;2.10;;
12290;SDS011;6208;48.956;9.076;2024-03-29T08:30:18;1.42;;;1.05;;
12290;SDS011;6208;48.956;9.076;2024-03-29T08:33:02;1.35;;;1.25;;
12290;SDS011;6208;48.956;9.076;2024-03-29T08:35:47;3.72;;;3.42;;
12290;SDS011;6208;48.956;9.076;2024-03-29T08:38:31;3.83;;;3.50;;
12290;SDS011;6208;48.956;9.076;2024-03-29T08:41:16;1.45;;;1.35;;
12290;SDS011;6208;48.956;9.076;2024-03-29T08:44:00;1.20;;;1.20;;
12290;SDS011;6208;48.956;9.076;2024-03-29T08:46:45;1.30;;;1.17;;
12290;SDS011;6208;48.956;9.076;2024-03-29T08:49:29;2.78;;;1.20;;
12290;SDS011;6208;48.956;9.076;2024-03-29T08:52:14;3.78;;;1.08;;
12290;SDS011;6208;48.956;9.076;2024-03-29T08:54:58;1.20;;;1.10;;
12290;SDS011;6208;48.956;9.076;2024-03-29T08:57:42;1.65;;;0.88;;
12290;SDS011;6208;48.956;9.076;2024-03-29T09:00:27;1.50;;;1.40;;
12290;SDS011;6208;48.956;9.076;2024-03-29T09:03:12;1.63;;;1.50;;
12290;SDS011;6208;48.956;9.076;2024-03-29T09:05:56;1.70;;;1.60;;
12290;SDS011;6208;48.956;9.076;2024-03-29T09:08:40;1.65;;;1.55;;
12290;SDS011;6208;48.956;9.076;2024-03-29T09:11:24;2.03;;;1.60;;
12290;SDS011;6208;48.956;9.076;2024-03-29T09:14:09;1.10;;;0.98;;
12290;SDS011;6208;48.956;9.076;2024-03-29T09:16:53;1.25;;;1.15;;
12290;SDS011;6208;48.956;9.076;2024-03-29T09:19:37;1.13;;;1.13;;
12290;SDS011;6208;48.956;9.076;2024-03-29T09:22:22;3.17;;;1.35;;
12290;SDS011;6208;48.956;9.076;2024-03-29T09:25:07;1.33;;;1.23;;
12290;SDS011;6208;48.956;9.076;2024-03-29T09:27:57;1.20;;;1.20;;
12290;SDS011;6208;48.956;9.076;2024-03-29T09:30:41;1.65;;;1.00;;
12290;SDS011;6208;48.956;9.076;2024-03-29T09:33:25;1.30;;;1.30;;
12290;SDS011;6208;48.956;9.076;2024-03-29T09:36:09;1.67;;;1.55;;
12290;SDS011;6208;48.956;9.076;2024-03-29T09:38:55;2.05;;;1.42;;
12290;SDS011;6208;48.956;9.076;2024-03-29T09:41:39;3.05;;;1.65;;
12290;SDS011;6208;48.956;9.076;2024-03-29T09:44:29;2.63;;;1.70;;
12290;SDS011;6208;48.956;9.076;2024-03-29T09:47:17;2.70;;;1.63;;
12290;SDS011;6208;48.956;9.076;2024-03-29T09:50:02;2.13;;;2.03;;
12290;SDS011;6208;48.956;9.076;2024-03-29T09:52:48;2.05;;;1.85;;
12290;SDS011;6208;48.956;9.076;2024-03-29T09:55:35;3.58;;;2.00;;
12290;SDS011;6208;48.956;9.076;2024-03-29T09:58:20;2.30;;;2.17;;
12290;SDS011;6208;48.956;9.076;2024-03-29T10:01:05;1.85;;;1.75;;
12290;SDS011;6208;48.956;9.076;2024-03-29T10:03:50;2.03;;;1.85;;
12290;SDS011;6208;48.956;9.076;2024-03-29T10:06:38;2.30;;;2.10;;
12290;SDS011;6208;48.956;9.076;2024-03-29T10:09:23;2.35;;;2.15;;
12290;SDS011;6208;48.956;9.076;2024-03-29T10:12:11;1.95;;;1.85;;
12290;SDS011;6208;48.956;9.076;2024-03-29T10:14:55;2.90;;;2.33;;
12290;SDS011;6208;48.956;9.076;2024-03-29T10:17:48;3.00;;;2.00;;
12290;SDS011;6208;48.956;9.076;2024-03-29T10:20:33;4.18;;;2.20;;
12290;SDS011;6208;48.956;9.076;2024-03-29T10:23:17;2.78;;;2.53;;
12290;SDS011;6208;48.956;9.076;2024-03-29T10:26:03;2.65;;;2.40;;
12290;SDS011;6208;48.956;9.076;2024-03-29T10:28:47;3.13;;;2.20;;
12290;SDS011;6208;48.956;9.076;2024-03-29T10:31:36;2.35;;;2.10;;
12290;SDS011;6208;48.956;9.076;2024-03-29T10:34:20;3.75;;;2.20;;
12290;SDS011;6208;48.956;9.076;2024-03-29T10:37:05;3.83;;;1.98;;
12290;SDS011;6208;48.956;9.076;2024-03-29T10:39:50;2.15;;;2.05;;
12290;SDS011;6208;48.956;9.076;2024-03-29T10:42:37;4.70;;;1.75;;
12290;SDS011;6208;48.956;9.076;2024-03-29T10:45:22;2.00;;;1.90;;
12290;SDS011;6208;48.956;9.076;2024-03-29T10:48:06;2.42;;;2.03;;
12290;SDS011;6208;48.956;9.076;2024-03-29T10:50:54;1.90;;;1.80;;
12290;SDS011;6208;48.956;9.076;2024-03-29T10:53:39;1.90;;;1.80;;
12290;SDS011;6208;48.956;9.076;2024-03-29T10:56:24;2.78;;;2.58;;
12290;SDS011;6208;48.956;9.076;2024-03-29T11:02:30;2.13;;;2.03;;
12290;SDS011;6208;48.956;9.076;2024-03-29T11:05:15;2.95;;;2.03;;
12290;SDS011;6208;48.956;9.076;2024-03-29T11:08:01;2.42;;;2.33;;
12290;SDS011;6208;48.956;9.076;2024-03-29T11:10:48;2.47;;;2.22;;
12290;SDS011;6208;48.956;9.076;2024-03-29T11:13:53;2.70;;;2.20;;
12290;SDS011;6208;48.956;9.076;2024-03-29T11:16:46;1.83;;;1.73;;
12290;SDS011;6208;48.956;9.076;2024-03-29T11:19:32;2.40;;;2.20;;
12290;SDS011;6208;48.956;9.076;2024-03-29T11:22:16;3.22;;;2.08;;
12290;SDS011;6208;48.956;9.076;2024-03-29T11:25:01;2.30;;;2.20;;
12290;SDS011;6208;48.956;9.076;2024-03-29T11:27:47;2.28;;;2.17;;
12290;SDS011;6208;48.956;9.076;2024-03-29T11:30:32;2.58;;;2.38;;
12290;SDS011;6208;48.956;9.076;2024-03-29T11:36:24;2.75;;;2.42;;
12290;SDS011;6208;48.956;9.076;2024-03-29T11:39:09;2.55;;;2.38;;
12290;SDS011;6208;48.956;9.076;2024-03-29T11:42:06;2.50;;;2.28;;
12290;SDS011;6208;48.956;9.076;2024-03-29T11:44:51;2.65;;;2.42;;
12290;SDS011;6208;48.956;9.076;2024-03-29T11:47:36;3.08;;;2.35;;
12290;SDS011;6208;48.956;9.076;2024-03-29T11:50:22;3.30;;;2.42;;
12290;SDS011;6208;48.956;9.076;2024-03-29T11:53:06;4.00;;;2.20;;
12290;SDS011;6208;48.956;9.076;2024-03-29T11:55:50;2.15;;;1.92;;
12290;SDS011;6208;48.956;9.076;2024-03-29T11:58:37;2.15;;;2.05;;
12290;SDS011;6208;48.956;9.076;2024-03-29T12:01:22;1.92;;;1.83;;
12290;SDS011;6208;48.956;9.076;2024-03-29T12:04:07;2.20;;;2.10;;
12290;SDS011;6208;48.956;9.076;2024-03-29T12:06:51;1.90;;;1.80;;
12290;SDS011;6208;48.956;9.076;2024-03-29T12:09:36;1.60;;;1.50;;
12290;SDS011;6208;48.956;9.076;2024-03-29T12:12:20;2.33;;;1.77;;
12290;SDS011;6208;48.956;9.076;2024-03-29T12:15:04;1.85;;;1.75;;
12290;SDS011;6208;48.956;9.076;2024-03-29T12:18:08;1.95;;;1.85;;
12290;SDS011;6208;48.956;9.076;2024-03-29T12:20:52;1.98;;;1.83;;
12290;SDS011;6208;48.956;9.076;2024-03-29T12:23:37;1.70;;;1.60;;
12290;SDS011;6208;48.956;9.076;2024-03-29T12:26:22;1.70;;;1.60;;
12290;SDS011;6208;48.956;9.076;2024-03-29T12:29:06;1.73;;;1.63;;
12290;SDS011;6208;48.956;9.076;2024-03-29T12:32:00;3.20;;;1.70;;
12290;SDS011;6208;48.956;9.076;2024-03-29T12:34:45;1.92;;;1.45;;
12290;SDS011;6208;48.956;9.076;2024-03-29T12:37:30;1.33;;;1.33;;
12290;SDS011;6208;48.956;9.076;2024-03-29T12:40:15;1.40;;;1.15;;
12290;SDS011;6208;48.956;9.076;2024-03-29T12:43:07;2.00;;;1.88;;
12290;SDS011;6208;48.956;9.076;2024-03-29T12:45:54;2.50;;;2.30;;
12290;SDS011;6208;48.956;9.076;2024-03-29T12:48:38;1.52;;;1.42;;
12290;SDS011;6208;48.956;9.076;2024-03-29T12:51:22;1.52;;;1.42;;
12290;SDS011;6208;48.956;9.076;2024-03-29T12:54:06;1.75;;;1.65;;
12290;SDS011;6208;48.956;9.076;2024-03-29T12:56:52;1.50;;;1.40;;
12290;SDS011;6208;48.956;9.076;2024-03-29T12:59:36;2.00;;;1.90;;
12290;SDS011;6208;48.956;9.076;2024-03-29T13:02:20;1.88;;;1.77;;
12290;SDS011;6208;48.956;9.076;2024-03-29T13:05:06;1.50;;;1.40;;
12290;SDS011;6208;48.956;9.076;2024-03-29T13:07:51;1.70;;;1.60;;
12290;SDS011;6208;48.956;9.076;2024-03-29T13:10:36;1.48;;;1.38;;
12290;SDS011;6208;48.956;9.076;2024-03-29T13:13:22;1.65;;;1.55;;
12290;SDS011;6208;48.956;9.076;2024-03-29T13:16:06;1.92;;;1.77;;
12290;SDS011;6208;48.956;9.076;2024-03-29T13:18:50;1.75;;;1.65;;
12290;SDS011;6208;48.956;9.076;2024-03-29T13:21:35;1.77;;;1.67;;
12290;SDS011;6208;48.956;9.076;2024-03-29T13:24:20;2.97;;;1.63;;
12290;SDS011;6208;48.956;9.076;2024-03-29T13:27:04;1.55;;;1.45;;
12290;SDS011;6208;48.956;9.076;2024-03-29T13:29:48;2.25;;;2.08;;
12290;SDS011;6208;48.956;9.076;2024-03-29T13:32:34;2.00;;;1.90;;
12290;SDS011;6208;48.956;9.076;2024-03-29T13:35:18;1.90;;;1.80;;
12290;SDS011;6208;48.956;9.076;2024-03-29T13:38:06;1.75;;;1.65;;
12290;SDS011;6208;48.956;9.076;2024-03-29T13:40:51;1.75;;;1.50;;
12290;SDS011;6208;48.956;9.076;2024-03-29T13:43:36;1.52;;;1.42;;
12290;SDS011;6208;48.956;9.076;2024-03-29T13:46:23;1.98;;;1.77;;
12290;SDS011;6208;48.956;9.076;2024-03-29T13:49:08;1.52;;;1.42;;
12290;SDS011;6208;48.956;9.076;2024-03-29T13:51:53;1.20;;;1.20;;
12290;SDS011;6208;48.956;9.076;2024-03-29T13:54:37;1.98;;;1.70;;
12290;SDS011;6208;48.956;9.076;2024-03-29T13:57:21;1.60;;;1.50;;
12290;SDS011;6208;48.956;9.076;2024-03-29T14:00:05;3.80;;;3.47;;
12290;SDS011;6208;48.956;9.076;2024-03-29T14:02:50;2.38;;;1.70;;
12290;SDS011;6208;48.956;9.076;2024-03-29T14:05:36;1.73;;;1.63;;
12290;SDS011;6208;48.956;9.076;2024-03-29T14:08:22;1.58;;;1.48;;
12290;SDS011;6208;48.956;9.076;2024-03-29T14:11:06;2.13;;;1.50;;
12290;SDS011;6208;48.956;9.076;2024-03-29T14:13:50;1.40;;;1.30;;
12290;SDS011;6208;48.956;9.076;2024-03-29T14:16:39;2.42;;;1.65;;
12290;SDS011;6208;48.956;9.076;2024-03-29T14:19:23;1.67;;;1.38;;
12290;SDS011;6208;48.956;9.076;2024-03-29T14:22:09;1.73;;;1.10;;
12290;SDS011;6208;48.956;9.076;2024-03-29T14:24:55;1.40;;;1.30;;
12290;SDS011;6208;48.956;9.076;2024-03-29T14:27:39;1.40;;;1.30;;
12290;SDS011;6208;48.956;9.076;2024-03-29T14:30:31;1.35;;;1.20;;
12290;SDS011;6208;48.956;9.076;2024-03-29T14:33:15;1.45;;;1.10;;
12290;SDS011;6208;48.956;9.076;2024-03-29T14:35:59;0.68;;;0.68;;
12290;SDS011;6208;48.956;9.076;2024-03-29T14:38:44;0.70;;;0.70;;
12290;SDS011;6208;48.956;9.076;2024-03-29T14:41:28;0.68;;;0.68;;
12290;SDS011;6208;48.956;9.076;2024-03-29T14:44:13;0.70;;;0.70;;
12290;SDS011;6208;48.956;9.076;2024-03-29T14:46:57;0.60;;;0.60;;
12290;SDS011;6208;48.956;9.076;2024-03-29T14:49:41;0.60;;;0.60;;
12290;SDS011;6208;48.956;9.076;2024-03-29T14:52:25;0.88;;;0.88;;
12290;SDS011;6208;48.956;9.076;2024-03-29T14:55:09;0.70;;;0.70;;
12290;SDS011;6208;48.956;9.076;2024-03-29T14:57:53;0.90;;;0.90;;
12290;SDS011;6208;48.956;9.076;2024-03-29T15:00:38;2.70;;;0.70;;
12290;SDS011;6208;48.956;9.076;2024-03-29T15:03:22;0.82;;;0.77;;
12290;SDS011;6208;48.956;9.076;2024-03-29T15:06:07;0.88;;;0.70;;
12290;SDS011;6208;48.956;9.076;2024-03-29T15:08:55;0.73;;;0.70;;
12290;SDS011;6208;48.956;9.076;2024-03-29T15:11:41;0.60;;;0.60;;
12290;SDS011;6208;48.956;9.076;2024-03-29T15:14:25;0.60;;;0.60;;
12290;SDS011;6208;48.956;9.076;2024-03-29T15:17:09;0.65;;;0.65;;
12290;SDS011;6208;48.956;9.076;2024-03-29T15:19:53;0.80;;;0.75;;
12290;SDS011;6208;48.956;9.076;2024-03-29T15:22:37;1.08;;;0.57;;
12290;SDS011;6208;48.956;9.076;2024-03-29T15:25:21;0.50;;;0.50;;
12290;SDS011;6208;48.956;9.076;2024-03-29T15:28:05;0.73;;;0.70;;
12290;SDS011;6208;48.956;9.076;2024-03-29T15:30:56;0.68;;;0.68;;
12290;SDS011;6208;48.956;9.076;2024-03-29T15:33:41;1.05;;;0.80;;
12290;SDS011;6208;48.956;9.076;2024-03-29T15:36:25;1.08;;;0.80;;
12290;SDS011;6208;48.956;9.076;2024-03-29T15:39:09;0.70;;;0.70;;
12290;SDS011;6208;48.956;9.076;2024-03-29T15:41:57;0.57;;;0.57;;
12290;SDS011;6208;48.956;9.076;2024-03-29T15:44:41;0.90;;;0.90;;
12290;SDS011;6208;48.956;9.076;2024-03-29T15:47:26;1.42;;;0.70;;
12290;SDS011;6208;48.956;9.076;2024-03-29T15:50:10;0.57;;;0.57;;
12290;SDS011;6208;48.956;9.076;2024-03-29T15:52:55;1.02;;;0.90;;
12290;SDS011;6208;48.956;9.076;2024-03-29T15:55:39;1.02;;;1.02;;
12290;SDS011;6208;48.956;9.076;2024-03-29T15:58:24;2.13;;;1.77;;
12290;SDS011;6208;48.956;9.076;2024-03-29T16:01:09;1.90;;;1.77;;
12290;SDS011;6208;48.956;9.076;2024-03-29T16:03:54;2.22;;;2.10;;
12290;SDS011;6208;48.956;9.076;2024-03-29T16:06:38;1.98;;;1.80;;
12290;SDS011;6208;48.956;9.076;2024-03-29T16:09:22;2.03;;;1.90;;
12290;SDS011;6208;48.956;9.076;2024-03-29T16:12:06;2.95;;;1.98;;
12290;SDS011;6208;48.956;9.076;2024-03-29T16:14:50;1.83;;;1.73;;
12290;SDS011;6208;48.956;9.076;2024-03-29T16:17:34;1.80;;;1.70;;
12290;SDS011;6208;48.956;9.076;2024-03-29T16:20:21;2.00;;;1.90;;
12290;SDS011;6208;48.956;9.076;2024-03-29T16:23:05;1.70;;;1.60;;
12290;SDS011;6208;48.956;9.076;2024-03-29T16:25:50;2.17;;;1.95;;
12290;SDS011;6208;48.956;9.076;2024-03-29T16:28:36;1.90;;;1.80;;
12290;SDS011;6208;48.956;9.076;2024-03-29T16:31:20;2.80;;;1.67;;
12290;SDS011;6208;48.956;9.076;2024-03-29T16:34:05;3.50;;;2.00;;
12290;SDS011;6208;48.956;9.076;2024-03-29T16:36:49;2.28;;;2.08;;
12290;SDS011;6208;48.956;9.076;2024-03-29T16:39:33;2.05;;;1.95;;
12290;SDS011;6208;48.956;9.076;2024-03-29T16:42:17;2.58;;;2.00;;
12290;SDS011;6208;48.956;9.076;2024-03-29T16:45:01;2.08;;;1.98;;
12290;SDS011;6208;48.956;9.076;2024-03-29T16:47:46;3.38;;;2.67;;
12290;SDS011;6208;48.956;9.076;2024-03-29T16:50:31;2.70;;;2.50;;
12290;SDS011;6208;48.956;9.076;2024-03-29T16:53:15;5.25;;;3.25;;
12290;SDS011;6208;48.956;9.076;2024-03-29T16:55:59;2.75;;;2.55;;